Time;durP1;ratioP1;P1;durP2;ratioP2;P2;SDS_P1;SDS_P2;PMS_P1;PMS_P2;Temp;Humidity;BMP_temperature;BMP_pressure;BME280_temperature;BME280_humidity;BME280_pressure;Samples;Min_cycle;Max_cycle;Signal;HPM_P1;HPM_P2
2021/08/05 00:01:27;;;;;;;4.83;4.43;;;18.20;99.90;;;;;;4955611;28;20452;-87
2021/08/05 00:03:54;;;;;;;4.70;4.20;;;18.00;99.90;;;;;;4972332;28;20543;-86
2021/08/05 00:06:22;;;;;;;5.10;3.90;;;18.00;99.90;;;;;;4965433;29;20452;-86
2021/08/05 00:08:48;;;;;;;4.90;4.40;;;18.10;99.90;;;;;;4952563;28;20485;-86
2021/08/05 00:11:15;;;;;;;6.83;4.60;;;18.00;99.90;;;;;;4936883;29;20460;-86
2021/08/05 00:16:16;;;;;;;4.13;3.73;;;17.90;99.90;;;;;;4959228;29;20465;-83
2021/08/05 00:18:43;;;;;;;6.10;4.30;;;17.90;99.90;;;;;;4957500;29;20440;-84
2021/08/05 00:21:10;;;;;;;6.03;4.80;;;18.00;99.90;;;;;;4963920;29;20485;-82
2021/08/05 00:23:38;;;;;;;6.23;4.70;;;18.00;99.90;;;;;;4972782;29;20922;-83
2021/08/05 00:26:05;;;;;;;6.30;4.40;;;18.00;99.90;;;;;;4959171;29;20475;-84
2021/08/05 00:28:33;;;;;;;5.17;4.30;;;18.00;99.90;;;;;;4942205;29;20482;-84
2021/08/05 00:31:00;;;;;;;6.07;4.90;;;18.00;99.90;;;;;;4944980;29;20467;-82
2021/08/05 00:33:27;;;;;;;5.87;4.63;;;17.90;99.90;;;;;;4958647;29;20456;-84
2021/08/05 00:35:53;;;;;;;5.13;4.63;;;17.90;99.90;;;;;;4962119;29;20469;-83
2021/08/05 00:38:20;;;;;;;8.63;4.37;;;17.90;99.90;;;;;;4958367;29;20509;-84
2021/08/05 00:40:48;;;;;;;7.10;4.10;;;17.90;99.90;;;;;;4957410;29;20457;-84
2021/08/05 00:43:16;;;;;;;5.43;4.97;;;17.90;99.90;;;;;;4946632;29;20465;-85
2021/08/05 00:45:42;;;;;;;4.63;4.23;;;17.90;99.90;;;;;;4937869;29;20471;-82
2021/08/05 00:48:10;;;;;;;4.83;4.13;;;17.80;99.90;;;;;;4938136;29;20483;-85
2021/08/05 00:50:37;;;;;;;9.43;3.47;;;17.90;99.90;;;;;;4938177;29;20460;-85
2021/08/05 00:53:04;;;;;;;5.43;4.97;;;17.90;99.90;;;;;;4949162;29;20464;-83
2021/08/05 00:55:31;;;;;;;4.30;3.90;;;17.90;99.90;;;;;;4957146;29;21056;-83
2021/08/05 00:57:59;;;;;;;4.90;4.10;;;17.90;99.90;;;;;;4957357;29;20462;-83
2021/08/05 01:00:26;;;;;;;5.13;4.63;;;17.90;99.90;;;;;;4957392;29;20869;-83
2021/08/05 01:02:57;;;;;;;4.73;4.07;;;17.80;99.90;;;;;;4969042;29;20479;-83
2021/08/05 01:05:28;;;;;;;4.20;3.80;;;17.90;99.90;;;;;;4967398;29;20504;-81
2021/08/05 01:08:00;;;;;;;4.10;3.80;;;17.90;99.90;;;;;;4964080;29;20460;-80
2021/08/05 01:10:30;;;;;;;5.10;4.60;;;17.90;99.90;;;;;;4958460;29;20453;-84
2021/08/05 01:13:07;;;;;;;7.00;4.50;;;17.80;99.90;;;;;;4948106;29;20449;-84
2021/08/05 01:15:34;;;;;;;4.37;3.97;;;17.80;99.90;;;;;;4943202;29;20477;-80
2021/08/05 01:18:06;;;;;;;6.83;4.73;;;17.80;99.90;;;;;;4946516;29;20489;-80
2021/08/05 01:20:34;;;;;;;5.13;4.63;;;17.80;99.90;;;;;;4939854;29;20457;-83
2021/08/05 01:23:19;;;;;;;5.03;4.23;;;17.80;99.90;;;;;;4946234;29;20820;-83
2021/08/05 01:25:50;;;;;;;5.43;4.77;;;17.80;99.90;;;;;;4957622;29;20473;-83
2021/08/05 01:28:18;;;;;;;5.70;4.03;;;17.70;99.90;;;;;;4956632;29;20492;-83
2021/08/05 01:30:48;;;;;;;5.77;4.47;;;17.60;99.90;;;;;;4964740;29;20461;-82
2021/08/05 01:33:19;;;;;;;5.20;4.50;;;17.60;99.90;;;;;;4951652;29;20829;-84
2021/08/05 01:35:46;;;;;;;4.87;4.47;;;17.60;99.90;;;;;;4941797;29;20469;-82
2021/08/05 01:38:15;;;;;;;5.23;4.73;;;17.60;99.90;;;;;;4943260;29;20450;-82
2021/08/05 01:40:42;;;;;;;5.27;4.77;;;17.60;99.90;;;;;;4940145;29;20466;-83
2021/08/05 01:43:09;;;;;;;4.87;4.37;;;17.60;99.90;;;;;;4951808;29;20465;-83
2021/08/05 01:45:40;;;;;;;6.20;4.90;;;17.60;99.90;;;;;;4960722;29;20516;-83
2021/08/05 01:48:09;;;;;;;5.63;5.10;;;17.60;99.90;;;;;;4960083;28;20997;-83
2021/08/05 01:50:37;;;;;;;6.47;5.43;;;17.50;99.90;;;;;;4958892;29;20454;-83
2021/08/05 01:53:04;;;;;;;5.60;4.57;;;17.40;99.90;;;;;;4966408;28;20479;-83
2021/08/05 01:55:31;;;;;;;6.20;5.60;;;17.40;99.90;;;;;;4961149;29;20477;-82
2021/08/05 01:57:58;;;;;;;5.70;4.60;;;17.50;99.90;;;;;;4961498;29;20810;-83
2021/08/05 02:00:25;;;;;;;6.07;5.00;;;17.40;99.90;;;;;;4959299;29;20473;-80
2021/08/05 02:02:54;;;;;;;5.03;4.60;;;17.40;99.90;;;;;;4949957;29;20453;-83
2021/08/05 02:05:26;;;;;;;5.50;4.70;;;17.40;99.90;;;;;;4952507;29;20548;-81
2021/08/05 02:07:59;;;;;;;5.67;3.80;;;17.40;99.90;;;;;;4945109;29;20453;-81
2021/08/05 02:10:31;;;;;;;4.77;4.37;;;17.40;99.90;;;;;;4956171;29;21013;-83
2021/08/05 02:13:03;;;;;;;6.37;5.00;;;17.50;99.90;;;;;;4959784;29;20454;-81
2021/08/05 02:15:32;;;;;;;7.10;5.37;;;17.50;99.90;;;;;;4950783;29;20880;-83
2021/08/05 02:18:00;;;;;;;5.63;4.53;;;17.40;99.90;;;;;;4940726;29;20442;-83
2021/08/05 02:20:27;;;;;;;6.93;5.50;;;17.50;99.90;;;;;;4957854;29;20915;-82
2021/08/05 02:22:55;;;;;;;7.30;6.57;;;17.50;99.90;;;;;;4959979;29;20455;-84
2021/08/05 02:25:22;;;;;;;7.07;5.80;;;17.50;99.90;;;;;;4959783;29;20481;-83
2021/08/05 02:27:49;;;;;;;6.70;5.37;;;17.50;99.90;;;;;;4959635;29;20835;-81
2021/08/05 02:30:17;;;;;;;6.10;4.43;;;17.50;99.90;;;;;;4945696;29;20492;-84
2021/08/05 02:32:45;;;;;;;7.00;4.07;;;17.60;99.90;;;;;;4947251;29;20452;-83
2021/08/05 02:35:14;;;;;;;6.80;4.33;;;17.60;99.90;;;;;;4949158;29;20473;-83
2021/08/05 02:37:43;;;;;;;9.63;5.07;;;17.60;99.90;;;;;;4945282;29;20955;-81
2021/08/05 02:40:12;;;;;;;6.20;4.60;;;17.40;99.90;;;;;;4951897;29;20950;-83
2021/08/05 02:42:39;;;;;;;8.50;5.30;;;17.20;99.90;;;;;;4959901;28;20449;-83
2021/08/05 02:45:07;;;;;;;4.60;4.00;;;17.20;99.90;;;;;;4959504;29;20481;-83
2021/08/05 02:47:34;;;;;;;5.73;4.63;;;17.20;99.90;;;;;;4958948;28;20476;-83
2021/08/05 02:50:03;;;;;;;5.50;4.50;;;17.20;99.90;;;;;;4948630;29;20485;-83
2021/08/05 02:52:32;;;;;;;4.97;4.47;;;17.20;99.90;;;;;;4939538;29;20470;-82
2021/08/05 02:55:00;;;;;;;7.40;5.73;;;17.20;99.90;;;;;;4944251;29;20473;-83
2021/08/05 02:57:28;;;;;;;5.70;5.10;;;17.10;99.90;;;;;;4963080;29;20453;-82
2021/08/05 02:59:54;;;;;;;9.13;5.67;;;17.00;99.90;;;;;;4958687;29;20437;-84
2021/08/05 03:02:22;;;;;;;6.10;5.50;;;17.10;99.90;;;;;;4959452;29;20460;-83
2021/08/05 03:04:49;;;;;;;8.57;6.27;;;17.00;99.90;;;;;;4965486;29;20499;-81
2021/08/05 03:07:16;;;;;;;7.50;6.10;;;16.90;99.90;;;;;;4955731;29;20546;-82
2021/08/05 03:09:44;;;;;;;6.20;5.60;;;16.90;99.90;;;;;;4946930;29;20492;-83
2021/08/05 03:12:11;;;;;;;8.93;5.67;;;16.80;99.90;;;;;;4940465;29;20455;-83
2021/08/05 03:14:37;;;;;;;6.40;5.80;;;16.80;99.90;;;;;;4939648;29;20481;-83
2021/08/05 03:17:04;;;;;;;6.27;5.63;;;16.80;99.90;;;;;;4950504;29;20453;-82
2021/08/05 03:19:31;;;;;;;7.70;6.90;;;16.70;99.90;;;;;;4957986;29;20451;-83
2021/08/05 03:21:57;;;;;;;8.50;7.07;;;16.70;99.90;;;;;;4958089;29;20488;-83
2021/08/05 03:24:24;;;;;;;6.80;6.20;;;16.60;99.90;;;;;;4958001;29;20489;-82
2021/08/05 03:26:52;;;;;;;7.13;5.93;;;16.60;99.90;;;;;;4947955;29;20450;-83
2021/08/05 03:29:19;;;;;;;7.97;6.57;;;16.50;99.90;;;;;;4938296;29;20482;-83
2021/08/05 03:31:48;;;;;;;7.83;5.30;;;16.50;99.90;;;;;;4938008;29;20456;-90
2021/08/05 03:34:15;;;;;;;8.63;6.23;;;16.50;99.90;;;;;;4938869;29;20466;-91
2021/08/05 03:36:44;;;;;;;7.07;6.20;;;16.50;99.90;;;;;;4947200;29;20615;-91
2021/08/05 03:39:19;;;;;;;7.63;6.47;;;16.50;99.90;;;;;;4957614;29;20457;-92
2021/08/05 03:41:47;;;;;;;7.60;6.77;;;16.50;99.90;;;;;;4957603;29;20824;-92
2021/08/05 03:44:15;;;;;;;6.90;5.63;;;16.60;99.90;;;;;;4954514;29;20576;-92
2021/08/05 03:46:42;;;;;;;6.80;6.10;;;16.60;99.90;;;;;;4940782;29;21037;-92
2021/08/05 03:49:10;;;;;;;10.77;8.20;;;16.60;99.90;;;;;;4940243;29;20481;-92
2021/08/05 03:51:39;;;;;;;8.50;7.40;;;16.60;99.90;;;;;;4940870;29;20537;-91
2021/08/05 03:54:06;;;;;;;8.73;7.53;;;16.60;99.90;;;;;;4954761;29;20476;-91
2021/08/05 03:56:41;;;;;;;7.73;6.93;;;16.60;99.90;;;;;;4959661;29;20479;-92
2021/08/05 03:59:09;;;;;;;8.17;7.27;;;16.60;99.90;;;;;;4957831;29;21029;-92
2021/08/05 04:01:39;;;;;;;8.23;7.47;;;16.60;99.90;;;;;;4947378;28;20489;-91
2021/08/05 04:04:08;;;;;;;7.60;6.83;;;16.50;99.90;;;;;;4946255;29;20990;-91
2021/08/05 04:06:44;;;;;;;8.27;7.47;;;16.40;99.90;;;;;;4959538;29;20519;-93
2021/08/05 04:09:11;;;;;;;13.47;8.43;;;16.40;99.90;;;;;;4955616;29;20579;-92
2021/08/05 04:11:40;;;;;;;11.60;7.63;;;16.40;99.90;;;;;;4971212;29;20445;-92
2021/08/05 04:14:09;;;;;;;10.10;8.00;;;16.40;99.90;;;;;;4976356;28;20465;-91
2021/08/05 04:16:42;;;;;;;9.80;7.33;;;16.40;99.90;;;;;;4971853;29;20460;-91
2021/08/05 04:19:09;;;;;;;11.93;7.33;;;16.40;99.90;;;;;;4964639;28;20481;-91
2021/08/05 04:21:36;;;;;;;11.33;7.80;;;16.40;99.90;;;;;;4959624;29;20454;-92
2021/08/05 04:24:02;;;;;;;10.10;6.70;;;16.40;99.90;;;;;;4953068;29;20478;-92
2021/08/05 04:26:32;;;;;;;11.27;7.40;;;16.40;99.90;;;;;;4959471;29;20461;-92
2021/08/05 04:28:59;;;;;;;7.63;6.50;;;16.50;99.90;;;;;;4948111;29;20484;-91
2021/08/05 04:31:26;;;;;;;7.20;5.93;;;16.50;99.90;;;;;;4960631;29;20464;-92
2021/08/05 04:33:59;;;;;;;8.90;7.07;;;16.60;99.90;;;;;;4958451;29;20485;-91
2021/08/05 04:36:28;;;;;;;6.80;6.10;;;16.70;99.90;;;;;;4964077;29;20485;-91
2021/08/05 04:38:56;;;;;;;8.93;6.73;;;16.80;99.90;;;;;;4974647;29;20505;-91
2021/08/05 04:41:27;;;;;;;7.20;6.60;;;16.90;99.90;;;;;;4966450;29;20521;-92
2021/08/05 04:43:57;;;;;;;8.77;6.07;;;17.00;99.90;;;;;;4958437;29;20551;-91
2021/08/05 04:46:24;;;;;;;9.03;7.47;;;17.10;99.90;;;;;;4958934;29;20534;-91
2021/08/05 04:48:51;;;;;;;9.60;7.10;;;17.20;99.90;;;;;;4953307;29;20457;-91
2021/08/05 04:51:28;;;;;;;9.07;5.80;;;17.20;99.90;;;;;;4947065;29;20491;-92
2021/08/05 04:54:04;;;;;;;7.90;6.03;;;17.30;99.90;;;;;;4946070;29;20993;-92
2021/08/05 04:56:31;;;;;;;7.90;7.13;;;17.30;99.90;;;;;;4937245;29;20479;-92
2021/08/05 04:58:58;;;;;;;7.33;6.30;;;17.40;99.90;;;;;;4958100;28;20465;-92
2021/08/05 05:01:25;;;;;;;6.20;5.70;;;17.50;99.90;;;;;;4936606;29;20549;-92
2021/08/05 05:03:52;;;;;;;6.80;6.03;;;17.60;99.90;;;;;;4936425;29;20463;-91
2021/08/05 05:06:24;;;;;;;7.30;5.93;;;17.70;99.90;;;;;;4939196;29;20545;-91
2021/08/05 05:08:57;;;;;;;8.37;6.30;;;17.70;99.90;;;;;;4940389;29;20449;-92
2021/08/05 05:11:26;;;;;;;8.90;6.57;;;17.70;99.90;;;;;;4955244;29;20471;-93
2021/08/05 05:13:53;;;;;;;9.17;6.37;;;17.80;99.90;;;;;;4950328;29;20959;-92
2021/08/05 05:16:25;;;;;;;10.00;6.20;;;17.80;99.90;;;;;;4950351;29;20513;-92
2021/08/05 05:18:57;;;;;;;11.23;7.07;;;17.80;99.90;;;;;;4950214;29;20463;-92
2021/08/05 05:21:27;;;;;;;7.60;5.70;;;17.80;99.90;;;;;;4963318;29;20509;-92
2021/08/05 05:23:54;;;;;;;8.10;5.13;;;17.90;99.90;;;;;;4968977;29;20455;-92
2021/08/05 05:26:23;;;;;;;6.77;5.87;;;17.90;99.90;;;;;;4967437;29;20469;-92
2021/08/05 05:28:50;;;;;;;8.53;5.90;;;17.80;99.90;;;;;;4943398;29;20459;-92
2021/08/05 05:31:17;;;;;;;8.63;5.73;;;17.80;99.90;;;;;;4942909;29;20518;-92
2021/08/05 05:33:58;;;;;;;9.43;5.83;;;17.90;99.90;;;;;;4943163;29;20570;-92
2021/08/05 05:36:26;;;;;;;6.70;5.73;;;17.90;99.90;;;;;;4942280;29;20441;-91
2021/08/05 05:38:55;;;;;;;6.83;5.40;;;17.80;99.90;;;;;;4957535;29;20457;-92
2021/08/05 05:41:22;;;;;;;7.00;5.80;;;17.90;99.90;;;;;;4962520;29;20461;-93
2021/08/05 05:44:06;;;;;;;8.23;5.63;;;17.90;99.90;;;;;;4966959;29;20545;-92
2021/08/05 05:46:33;;;;;;;7.60;6.77;;;18.00;99.90;;;;;;4962060;29;20902;-92
2021/08/05 05:49:01;;;;;;;9.27;6.77;;;18.10;99.90;;;;;;4957764;29;20479;-92
2021/08/05 05:51:34;;;;;;;7.17;5.93;;;18.00;99.90;;;;;;4963829;29;20488;-92
2021/08/05 05:54:03;;;;;;;11.20;7.03;;;18.10;99.90;;;;;;4965406;29;20972;-93
2021/08/05 05:56:30;;;;;;;8.50;6.23;;;18.20;99.90;;;;;;4969982;29;20515;-92
2021/08/05 05:58:59;;;;;;;9.70;7.33;;;18.30;99.90;;;;;;4978302;29;20441;-93
2021/08/05 06:01:26;;;;;;;8.30;7.10;;;18.40;99.90;;;;;;4970147;29;21010;-93
2021/08/05 06:03:53;;;;;;;6.97;5.00;;;18.90;99.90;;;;;;4963421;29;20941;-92
2021/08/05 06:06:21;;;;;;;8.23;5.10;;;19.30;99.90;;;;;;4962395;29;20443;-94
2021/08/05 06:08:51;;;;;;;7.83;5.13;;;19.50;99.90;;;;;;4956720;29;20464;-93
2021/08/05 06:11:20;;;;;;;4.93;4.53;;;19.80;99.90;;;;;;4942666;29;20509;-93
2021/08/05 06:13:50;;;;;;;6.47;4.43;;;20.60;99.90;;;;;;4943147;29;20931;-92
2021/08/05 06:16:17;;;;;;;7.80;5.67;;;21.80;99.90;;;;;;4980051;23;20530;-86
2021/08/05 06:18:44;;;;;;;4.90;4.37;;;22.70;99.90;;;;;;4957485;28;20483;-86
2021/08/05 06:21:10;;;;;;;6.30;4.20;;;23.70;99.90;;;;;;4959690;28;20455;-87
2021/08/05 06:23:37;;;;;;;4.77;4.27;;;24.50;99.60;;;;;;4958476;28;20457;-86
2021/08/05 06:26:05;;;;;;;4.73;3.93;;;25.10;97.20;;;;;;4954018;28;20474;-87
2021/08/05 06:28:33;;;;;;;5.20;3.80;;;25.60;95.90;;;;;;4956554;28;20515;-87
2021/08/05 06:31:00;;;;;;;4.27;3.93;;;26.20;94.30;;;;;;4957331;28;20486;-87
2021/08/05 06:33:27;;;;;;;3.07;2.77;;;26.30;92.70;;;;;;4957318;28;20454;-87
2021/08/05 06:35:53;;;;;;;4.20;3.90;;;26.60;92.40;;;;;;4945983;28;20481;-87
2021/08/05 06:38:20;;;;;;;5.40;4.10;;;27.10;91.20;;;;;;4938261;29;20850;-87
2021/08/05 06:40:47;;;;;;;3.63;3.30;;;27.40;89.50;;;;;;4945088;29;20959;-87
2021/08/05 06:43:15;;;;;;;4.70;3.60;;;27.70;88.10;;;;;;4945158;28;20461;-87
2021/08/05 06:45:42;;;;;;;3.23;2.93;;;28.20;87.60;;;;;;4956881;29;20469;-87
2021/08/05 06:48:09;;;;;;;4.13;3.50;;;28.70;84.60;;;;;;4956881;29;20830;-87
2021/08/05 06:50:35;;;;;;;6.53;3.77;;;28.90;82.10;;;;;;4956561;28;20484;-87
2021/08/05 06:53:02;;;;;;;3.60;3.30;;;29.00;80.40;;;;;;4952781;28;20460;-87
2021/08/05 06:55:29;;;;;;;5.40;3.97;;;29.60;77.80;;;;;;4936920;29;20490;-87
2021/08/05 06:57:56;;;;;;;3.87;3.50;;;28.80;78.80;;;;;;4938518;29;20538;-87
2021/08/05 07:00:24;;;;;;;4.20;3.80;;;29.10;79.60;;;;;;4937527;29;20493;-87
2021/08/05 07:02:50;;;;;;;4.50;3.43;;;29.20;78.00;;;;;;4939219;29;20953;-87
2021/08/05 07:05:17;;;;;;;4.43;3.97;;;29.00;77.10;;;;;;4956388;28;20508;-87
2021/08/05 07:07:44;;;;;;;3.83;3.53;;;28.30;78.10;;;;;;4957308;29;20547;-87
2021/08/05 07:10:11;;;;;;;7.77;3.87;;;27.80;79.50;;;;;;4956443;28;20480;-86
2021/08/05 07:12:38;;;;;;;5.20;4.30;;;27.10;81.70;;;;;;4955653;28;20455;-86
2021/08/05 07:15:06;;;;;;;4.83;3.67;;;26.30;84.00;;;;;;4936782;29;20486;-87
2021/08/05 07:17:36;;;;;;;4.40;3.37;;;25.70;88.10;;;;;;4936268;29;20952;-87
2021/08/05 07:20:03;;;;;;;4.43;3.90;;;25.60;88.30;;;;;;4937354;29;20530;-87
2021/08/05 07:22:30;;;;;;;5.73;4.90;;;25.30;89.00;;;;;;4948927;28;20812;-87
2021/08/05 07:24:56;;;;;;;4.80;3.67;;;25.10;90.00;;;;;;4955945;28;20828;-87
2021/08/05 07:27:23;;;;;;;4.37;3.30;;;24.70;90.90;;;;;;4956303;28;20511;-87
2021/08/05 07:29:49;;;;;;;4.43;4.03;;;25.00;90.60;;;;;;4957095;28;20950;-87
2021/08/05 07:32:16;;;;;;;5.37;3.13;;;24.80;90.50;;;;;;4956654;29;20432;-87
2021/08/05 07:34:44;;;;;;;5.30;3.87;;;24.40;90.90;;;;;;4954452;29;20469;-86
2021/08/05 07:37:11;;;;;;;5.27;4.00;;;23.90;91.80;;;;;;4973312;28;20447;-86
2021/08/05 07:39:38;;;;;;;4.17;3.53;;;23.70;92.10;;;;;;4961656;28;20495;-87
2021/08/05 07:42:05;;;;;;;4.20;3.80;;;23.30;92.10;;;;;;4947319;29;20786;-86
2021/08/05 07:44:32;;;;;;;7.67;3.80;;;23.10;92.90;;;;;;4936307;29;20473;-87
2021/08/05 07:46:59;;;;;;;7.40;4.43;;;23.00;93.60;;;;;;4936474;29;20534;-86
2021/08/05 07:49:26;;;;;;;5.73;3.83;;;23.20;94.00;;;;;;4936018;29;20527;-87
2021/08/05 07:51:54;;;;;;;6.03;4.07;;;23.30;94.00;;;;;;4936377;29;20492;-87
2021/08/05 07:54:21;;;;;;;5.90;4.27;;;23.40;93.90;;;;;;4945672;28;20460;-87
2021/08/05 07:56:48;;;;;;;6.00;4.37;;;23.40;94.10;;;;;;4955600;28;20936;-87
2021/08/05 07:59:15;;;;;;;3.63;3.30;;;23.40;94.60;;;;;;4951275;28;20453;-87
2021/08/05 08:01:41;;;;;;;6.87;5.47;;;23.60;94.50;;;;;;4936010;29;20449;-87
2021/08/05 08:04:08;;;;;;;6.63;3.93;;;23.60;94.30;;;;;;4935943;29;20461;-86
2021/08/05 08:06:35;;;;;;;5.30;4.00;;;23.60;93.60;;;;;;4942319;29;20881;-87
2021/08/05 08:09:04;;;;;;;4.53;3.80;;;23.40;93.50;;;;;;4954841;29;20466;-87
2021/08/05 08:11:30;;;;;;;6.30;3.80;;;23.40;94.20;;;;;;4955524;28;21046;-87
2021/08/05 08:13:58;;;;;;;4.37;3.97;;;23.40;94.40;;;;;;4971723;29;20448;-87
2021/08/05 08:16:24;;;;;;;8.10;3.80;;;23.20;93.70;;;;;;4972242;29;20514;-87
2021/08/05 08:18:51;;;;;;;4.60;3.63;;;23.10;94.20;;;;;;4948763;29;20475;-88
2021/08/05 08:21:19;;;;;;;4.40;4.00;;;22.90;94.40;;;;;;4940271;29;20448;-87
2021/08/05 08:23:46;;;;;;;5.67;3.90;;;22.80;94.40;;;;;;4941484;29;20459;-87
2021/08/05 08:26:15;;;;;;;4.70;4.20;;;22.60;94.80;;;;;;4942657;29;20478;-87
2021/08/05 08:28:42;;;;;;;5.83;3.30;;;22.50;94.40;;;;;;4964206;28;20461;-88
2021/08/05 08:31:09;;;;;;;3.57;3.27;;;22.60;94.30;;;;;;4969908;29;20494;-87
2021/08/05 08:33:35;;;;;;;5.40;3.67;;;22.70;94.90;;;;;;4961809;28;20458;-88
2021/08/05 08:36:02;;;;;;;4.33;3.20;;;22.80;95.00;;;;;;4961509;29;20530;-89
2021/08/05 08:38:29;;;;;;;3.70;3.37;;;23.10;94.50;;;;;;4954497;28;20507;-88
2021/08/05 08:40:59;;;;;;;3.33;3.03;;;23.30;93.40;;;;;;4936229;29;20449;-88
2021/08/05 08:43:28;;;;;;;4.53;3.40;;;23.20;93.20;;;;;;4939750;29;20476;-88
2021/08/05 08:45:56;;;;;;;4.97;2.80;;;23.10;92.90;;;;;;4935797;29;20476;-88
2021/08/05 08:48:27;;;;;;;4.23;3.63;;;23.00;93.30;;;;;;4935496;29;20460;-88
2021/08/05 08:50:54;;;;;;;4.27;3.70;;;23.00;92.90;;;;;;4934858;29;20887;-88
2021/08/05 08:53:26;;;;;;;5.43;3.20;;;22.90;93.10;;;;;;4938838;29;20460;-88
2021/08/05 08:55:55;;;;;;;3.60;3.30;;;22.80;93.60;;;;;;4955203;28;20487;-88
2021/08/05 08:58:22;;;;;;;4.33;3.10;;;22.70;93.50;;;;;;4955581;28;20559;-88
2021/08/05 09:00:50;;;;;;;4.27;3.90;;;22.30;94.20;;;;;;4956150;29;20454;-88
2021/08/05 09:03:17;;;;;;;3.83;3.13;;;22.20;95.40;;;;;;4955408;29;20462;-87
2021/08/05 09:05:45;;;;;;;3.50;3.17;;;22.00;95.10;;;;;;4954866;28;20470;-87
2021/08/05 09:08:11;;;;;;;4.43;3.13;;;21.80;95.20;;;;;;4954766;28;20481;-88
2021/08/05 09:10:38;;;;;;;3.07;2.87;;;21.90;95.80;;;;;;4953782;28;20462;-87
2021/08/05 09:13:06;;;;;;;3.30;3.00;;;22.20;95.70;;;;;;4954996;28;20453;-88
2021/08/05 09:15:35;;;;;;;5.40;3.30;;;22.30;95.40;;;;;;4953865;28;20577;-88
2021/08/05 09:18:04;;;;;;;4.33;2.87;;;22.50;95.60;;;;;;4954109;28;20439;-88
2021/08/05 09:20:30;;;;;;;3.17;2.90;;;24.90;93.40;;;;;;4954439;28;20950;-86
2021/08/05 09:22:57;;;;;;;3.80;3.00;;;28.30;87.00;;;;;;4955782;28;20523;-86
2021/08/05 09:25:30;;;;;;;3.47;2.70;;;30.60;77.20;;;;;;4955215;28;20518;-85
2021/08/05 09:27:59;;;;;;;2.67;2.47;;;29.30;72.10;;;;;;4952855;28;20503;-87
2021/08/05 09:30:35;;;;;;;2.87;2.67;;;30.20;72.50;;;;;;4954119;28;20455;-89
2021/08/05 09:33:09;;;;;;;2.73;2.50;;;31.80;66.30;;;;;;4953832;28;20456;-90
2021/08/05 09:35:37;;;;;;;2.93;2.73;;;32.80;61.40;;;;;;4954254;28;20481;-89
2021/08/05 09:38:22;;;;;;;2.57;2.37;;;33.10;58.30;;;;;;4953609;29;20452;-86
2021/08/05 09:41:10;;;;;;;2.90;2.60;;;32.20;59.20;;;;;;4954848;28;20475;-88
2021/08/05 09:43:38;;;;;;;3.33;3.03;;;31.20;61.40;;;;;;4959233;29;20938;-89
2021/08/05 09:46:05;;;;;;;3.13;2.83;;;29.30;65.00;;;;;;4958777;28;20476;-89
2021/08/05 09:48:41;;;;;;;3.23;2.83;;;29.30;66.80;;;;;;4954100;29;20456;-86
2021/08/05 09:51:14;;;;;;;2.67;2.47;;;30.30;66.90;;;;;;4954136;28;20484;-86
2021/08/05 09:53:57;;;;;;;2.87;2.20;;;30.50;63.40;;;;;;4956295;28;20449;-84
2021/08/05 09:56:24;;;;;;;3.47;2.40;;;29.20;64.60;;;;;;4955556;28;20472;-85
2021/08/05 09:58:51;;;;;;;2.20;2.10;;;30.20;65.60;;;;;;4959707;28;20984;-85
2021/08/05 10:01:18;;;;;;;3.00;2.80;;;30.80;60.00;;;;;;4945269;29;20461;-82
2021/08/05 10:03:46;;;;;;;2.33;2.13;;;29.70;62.20;;;;;;4947897;28;20954;-83
2021/08/05 10:06:13;;;;;;;2.37;2.20;;;29.60;63.10;;;;;;4959333;28;20476;-84
2021/08/05 10:08:42;;;;;;;2.23;2.10;;;30.70;61.70;;;;;;4957691;28;20467;-84
2021/08/05 10:11:09;;;;;;;3.83;3.30;;;33.50;57.60;;;;;;4958928;28;20547;-84
2021/08/05 10:13:37;;;;;;;3.43;2.70;;;33.10;55.70;;;;;;4969978;28;20417;-83
2021/08/05 10:16:06;;;;;;;2.47;2.27;;;31.90;56.10;;;;;;4968657;28;20479;-83
2021/08/05 10:18:34;;;;;;;2.60;2.40;;;30.90;57.10;;;;;;4957751;28;20438;-84
2021/08/05 10:21:04;;;;;;;3.00;2.80;;;31.20;58.10;;;;;;4958951;29;20450;-85
2021/08/05 10:23:31;;;;;;;2.70;2.20;;;31.60;56.80;;;;;;4942293;29;20891;-85
2021/08/05 10:26:01;;;;;;;2.37;2.17;;;32.70;55.60;;;;;;4938930;29;20977;-85
2021/08/05 10:28:29;;;;;;;2.60;2.40;;;33.10;53.20;;;;;;4938739;29;20465;-85
2021/08/05 10:30:57;;;;;;;3.50;3.23;;;31.60;55.00;;;;;;4938794;29;20461;-85
2021/08/05 10:33:25;;;;;;;4.43;2.50;;;30.50;57.50;;;;;;4940356;29;20835;-86
2021/08/05 10:35:52;;;;;;;3.33;2.63;;;29.40;59.90;;;;;;4937988;29;20469;-85
2021/08/05 10:38:22;;;;;;;2.83;2.00;;;28.30;61.00;;;;;;4946372;28;20449;-85
2021/08/05 10:40:50;;;;;;;1.60;1.50;;;27.90;64.40;;;;;;4960972;28;21143;-85
2021/08/05 10:43:17;;;;;;;2.07;1.87;;;27.50;65.90;;;;;;4958110;28;20445;-85
2021/08/05 10:45:45;;;;;;;2.23;2.03;;;27.20;66.00;;;;;;4957860;28;20468;-85
2021/08/05 10:48:12;;;;;;;4.13;2.17;;;27.00;67.70;;;;;;4957185;28;20798;-85
2021/08/05 10:50:42;;;;;;;1.73;1.63;;;27.30;67.30;;;;;;4949157;29;20559;-85
2021/08/05 10:53:13;;;;;;;4.83;1.93;;;28.10;65.70;;;;;;4943885;29;20488;-85
2021/08/05 10:55:42;;;;;;;3.73;1.77;;;28.30;64.00;;;;;;4939235;29;21001;-85
2021/08/05 10:58:12;;;;;;;2.40;2.20;;;28.40;64.90;;;;;;4937514;29;20908;-85
2021/08/05 11:01:05;;;;;;;2.60;2.40;;;29.00;62.80;;;;;;4938184;29;20450;-85
2021/08/05 11:03:44;;;;;;;2.97;2.33;;;29.60;61.50;;;;;;4938006;29;20454;-86
2021/08/05 11:06:41;;;;;;;2.10;1.90;;;31.00;59.20;;;;;;4937033;29;20560;-86
2021/08/05 11:09:27;;;;;;;2.23;2.03;;;33.10;54.50;;;;;;4896842;29;21023;-85
2021/08/05 11:11:56;;;;;;;2.10;1.57;;;33.20;52.60;;;;;;4932483;29;20485;-86
2021/08/05 11:14:40;;;;;;;1.50;1.40;;;32.80;53.40;;;;;;4936442;29;20454;-86
2021/08/05 11:17:07;;;;;;;1.70;1.60;;;33.10;50.50;;;;;;4937493;29;20489;-86
2021/08/05 11:19:40;;;;;;;1.53;1.40;;;32.20;51.60;;;;;;4936784;29;20449;-86
2021/08/05 11:22:52;;;;;;;2.00;1.80;;;31.40;53.80;;;;;;4938944;29;20830;-86
2021/08/05 11:25:21;;;;;;;1.73;1.63;;;32.80;52.30;;;;;;4950753;28;20473;-86
2021/08/05 11:28:23;;;;;;;3.57;2.17;;;33.00;51.00;;;;;;4946125;28;20450;-85
2021/08/05 11:30:53;;;;;;;2.23;1.70;;;31.60;53.60;;;;;;4943297;29;20485;-85
2021/08/05 11:33:54;;;;;;;4.10;2.70;;;30.50;55.80;;;;;;4947854;29;20476;-85
2021/08/05 11:36:24;;;;;;;2.70;2.43;;;29.40;57.70;;;;;;4935959;29;20480;-85
2021/08/05 11:38:59;;;;;;;1.60;1.40;;;28.90;58.70;;;;;;4947014;29;20498;-86
2021/08/05 11:41:57;;;;;;;2.17;1.97;;;28.40;59.70;;;;;;4959955;29;20437;-87
2021/08/05 11:44:43;;;;;;;1.83;1.73;;;28.30;60.70;;;;;;4960349;29;20445;-85
2021/08/05 11:47:41;;;;;;;2.77;2.57;;;28.40;60.10;;;;;;4953116;29;20454;-86
2021/08/05 11:50:21;;;;;;;2.50;2.20;;;28.00;62.00;;;;;;4938635;29;20529;-86
2021/08/05 11:52:49;;;;;;;3.40;2.30;;;27.90;64.20;;;;;;4937550;29;20489;-86
2021/08/05 11:55:18;;;;;;;3.13;2.80;;;27.70;65.50;;;;;;4937917;29;20527;-86
2021/08/05 11:57:46;;;;;;;4.53;3.20;;;27.60;65.50;;;;;;4937207;29;20464;-85
2021/08/05 12:00:17;;;;;;;2.90;2.70;;;27.40;66.40;;;;;;4941890;29;20450;-85
2021/08/05 12:02:45;;;;;;;3.87;2.57;;;27.20;67.60;;;;;;4940400;29;20943;-86
2021/08/05 12:05:13;;;;;;;2.20;2.00;;;27.00;67.70;;;;;;4944612;29;20473;-86
2021/08/05 12:07:47;;;;;;;3.43;2.47;;;27.00;69.20;;;;;;4944431;29;20447;-86
2021/08/05 12:10:16;;;;;;;2.60;1.90;;;27.20;69.10;;;;;;4940190;29;20512;-86
2021/08/05 12:12:45;;;;;;;2.60;2.37;;;27.80;66.90;;;;;;4940725;29;20500;-86
2021/08/05 12:15:18;;;;;;;2.47;2.27;;;29.50;63.20;;;;;;4936806;29;20833;-88
2021/08/05 12:17:48;;;;;;;2.40;2.20;;;31.70;57.30;;;;;;4936403;29;20442;-88
2021/08/05 12:20:18;;;;;;;2.30;2.10;;;34.30;54.50;;;;;;4943308;29;20449;-89
2021/08/05 12:22:48;;;;;;;2.60;1.50;;;37.10;49.50;;;;;;4942249;28;20449;-89
2021/08/05 12:25:38;;;;;;;2.03;1.80;;;37.90;45.50;;;;;;4935730;29;20473;-89
2021/08/05 12:28:08;;;;;;;1.60;1.50;;;37.80;44.50;;;;;;4959590;29;20446;-89
2021/08/05 12:30:41;;;;;;;1.70;1.47;;;37.80;44.10;;;;;;4961170;29;20805;-89
2021/08/05 12:33:11;;;;;;;3.33;1.63;;;37.50;43.60;;;;;;4956617;29;20484;-88
2021/08/05 12:35:40;;;;;;;2.03;1.83;;;36.50;45.20;;;;;;4955380;29;20477;-89
2021/08/05 12:38:09;;;;;;;3.20;1.73;;;35.20;45.60;;;;;;4960039;28;20888;-88
2021/08/05 12:40:40;;;;;;;2.20;1.87;;;34.90;46.90;;;;;;4955888;29;20544;-88
2021/08/05 12:43:09;;;;;;;2.00;1.50;;;35.30;46.00;;;;;;4955518;29;21025;-89
2021/08/05 12:45:40;;;;;;;2.50;1.83;;;35.40;45.20;;;;;;4939669;29;20473;-89
2021/08/05 12:48:08;;;;;;;2.23;2.03;;;35.10;46.00;;;;;;4935718;29;20462;-89
2021/08/05 12:50:39;;;;;;;2.20;2.00;;;33.70;47.90;;;;;;4936537;29;20864;-88
2021/08/05 12:53:05;;;;;;;2.93;1.80;;;31.90;50.30;;;;;;4936208;29;21047;-88
2021/08/05 12:55:47;;;;;;;2.00;1.80;;;30.70;53.50;;;;;;4935730;29;20994;-88
2021/08/05 12:58:17;;;;;;;1.97;1.77;;;29.90;55.10;;;;;;4935595;29;20456;-88
2021/08/05 13:00:45;;;;;;;1.97;1.77;;;29.40;56.50;;;;;;4936213;29;20961;-88